createdAt,value
2022-08-01T00:04:01.891Z,51.92
2022-08-01T00:09:34.199Z,52.01
2022-08-01T00:15:06.340Z,52.13
2022-08-01T00:20:38.189Z,52.33
2022-08-01T00:26:10.319Z,52.80
2022-08-01T00:31:42.043Z,53.13
2022-08-01T00:37:15.926Z,53.62
2022-08-01T00:42:45.782Z,54.06
2022-08-01T00:48:18.020Z,54.31
2022-08-01T00:53:51.568Z,54.74
2022-08-01T00:59:21.851Z,54.43
2022-08-01T03:05:41.674Z,56.34
2022-08-01T03:11:14.005Z,56.43
2022-08-01T03:16:46.213Z,56.27
2022-08-01T03:22:17.635Z,56.23
2022-08-01T03:27:49.590Z,56.12
2022-08-01T03:33:21.670Z,56.15
2022-08-01T03:38:53.668Z,56.13
2022-08-01T03:44:25.501Z,56.16
2022-08-01T03:49:57.272Z,56.26
2022-08-01T03:55:29.231Z,56.36
2022-08-01T04:01:01.479Z,56.24
2022-08-01T04:06:33.278Z,56.18
2022-08-01T04:12:12.484Z,56.24
2022-08-01T04:17:37.890Z,56.28
2022-08-01T04:23:10.114Z,56.07
2022-08-01T04:25:23.138Z,0.00
2022-08-01T04:30:58.411Z,55.88
2022-08-01T04:36:26.730Z,55.87
2022-08-01T04:41:58.702Z,55.62
2022-08-01T04:47:30.222Z,55.22
2022-08-01T04:53:02.143Z,53.32
2022-08-01T04:58:34.019Z,52.55
2022-08-01T05:04:05.343Z,51.39
2022-08-01T05:09:36.981Z,50.29
2022-08-01T05:15:14.934Z,48.90
2022-08-01T05:20:40.779Z,48.26
2022-08-01T05:26:13.866Z,47.94
2022-08-01T05:31:43.987Z,47.38
2022-08-01T05:37:15.877Z,46.82
2022-08-01T05:42:47.905Z,46.97
2022-08-01T05:48:19.688Z,46.92
2022-08-01T05:53:51.577Z,46.66
2022-08-01T06:04:52.593Z,42.12
2022-08-01T06:15:53.978Z,38.97
2022-08-01T06:21:25.711Z,37.20
2022-08-01T06:26:57.504Z,35.86
2022-08-01T06:32:29.372Z,34.70
2022-08-01T06:38:01.288Z,33.66
2022-08-01T06:43:32.803Z,33.35
2022-08-01T06:49:04.776Z,32.81
2022-08-01T06:54:36.438Z,31.18
2022-08-01T07:00:08.270Z,31.55
2022-08-01T07:05:39.874Z,31.65
2022-08-01T07:11:11.882Z,31.43
2022-08-01T07:16:43.520Z,30.02
2022-08-01T07:22:23.196Z,29.72
2022-08-01T07:27:47.150Z,30.03
2022-08-01T07:33:18.506Z,30.20
2022-08-01T07:38:50.147Z,29.69
2022-08-01T07:44:21.807Z,30.01
2022-08-01T07:49:53.271Z,28.68
2022-08-01T07:55:25.205Z,29.19
2022-08-01T08:00:56.681Z,28.98
2022-08-01T08:06:28.315Z,28.70
2022-08-01T08:12:00.102Z,29.28
2022-08-01T08:19:52.980Z,29.51
2022-08-01T08:25:26.702Z,29.11
2022-08-01T08:30:56.624Z,29.04
2022-08-01T08:36:31.254Z,29.10
2022-08-01T08:42:00.413Z,29.38
2022-08-01T08:47:32.072Z,28.72
2022-08-01T08:53:06.582Z,28.90
2022-08-01T08:58:35.130Z,28.79
2022-08-01T09:04:06.791Z,29.01
2022-08-01T09:09:41.778Z,28.87
2022-08-01T09:15:10.487Z,29.43
2022-08-01T09:20:42.219Z,29.86
2022-08-01T09:26:36.894Z,0.00
2022-08-01T09:32:08.824Z,29.63
2022-08-01T09:37:39.562Z,29.99
2022-08-01T09:43:10.794Z,29.72
2022-08-01T09:48:42.354Z,30.22
2022-08-01T09:54:13.864Z,30.56
2022-08-01T09:59:58.310Z,31.12
2022-08-01T10:05:18.991Z,32.04
2022-08-01T10:10:48.403Z,33.14
2022-08-01T10:16:20.179Z,33.71
2022-08-01T10:21:58.181Z,34.25
2022-08-01T10:27:38.156Z,34.89
2022-08-01T10:32:55.510Z,34.98
2022-08-01T10:38:27.238Z,35.30
2022-08-01T10:43:58.997Z,35.49
2022-08-01T10:49:30.807Z,35.77
2022-08-01T10:55:02.650Z,35.65
2022-08-01T11:00:34.387Z,35.59
2022-08-01T11:06:06.216Z,35.75
2022-08-01T11:11:37.871Z,35.72
2022-08-01T11:17:09.416Z,35.48
2022-08-01T11:22:40.799Z,34.82
2022-08-01T11:30:25.930Z,33.88
2022-08-01T11:35:57.913Z,34.09
2022-08-01T11:41:37.212Z,34.40
2022-08-01T11:52:30.778Z,34.68
2022-08-01T11:58:02.351Z,34.86
2022-08-01T12:03:34.537Z,35.27
2022-08-01T12:09:09.261Z,35.12
2022-08-01T12:14:37.415Z,34.83
2022-08-01T12:20:09.302Z,34.40
2022-08-01T12:25:41.009Z,33.96
2022-08-01T12:31:12.885Z,33.28
2022-08-01T12:36:44.535Z,32.54
2022-08-01T12:42:16.460Z,32.60
2022-08-01T12:47:48.247Z,31.47
2022-08-01T12:53:19.972Z,31.53
2022-08-01T12:58:51.699Z,32.17
2022-08-01T13:09:52.797Z,33.60
2022-08-01T13:15:24.160Z,34.21
2022-08-01T13:20:56.070Z,35.23
2022-08-01T13:26:28.171Z,35.79
2022-08-01T13:31:59.382Z,36.81
2022-08-01T13:37:30.913Z,36.71
2022-08-01T13:43:02.693Z,35.87
2022-08-01T13:48:34.467Z,35.49
2022-08-01T13:54:06.500Z,35.52
2022-08-01T13:59:37.960Z,35.60
2022-08-01T14:05:09.769Z,36.08
2022-08-01T14:16:11.144Z,36.99
2022-08-01T14:27:12.447Z,37.85
2022-08-01T14:32:44.420Z,38.04
2022-08-01T14:43:45.780Z,38.19
2022-08-01T14:49:17.650Z,37.74
2022-08-01T14:54:49.015Z,38.07
2022-08-01T15:00:21.146Z,38.34
2022-08-01T15:05:52.779Z,38.73
2022-08-01T15:16:53.704Z,42.63
2022-08-01T15:22:25.457Z,47.49
2022-08-01T15:27:57.490Z,49.15
2022-08-01T15:33:29.583Z,51.54
2022-08-01T15:39:01.403Z,52.43
2022-08-01T15:44:32.950Z,55.02
2022-08-01T15:50:05.078Z,55.06
2022-08-01T15:55:36.758Z,54.94
2022-08-01T16:01:08.770Z,55.20
2022-08-01T16:06:41.046Z,54.70
2022-08-01T16:12:13.085Z,54.92
2022-08-01T16:17:44.811Z,55.80
2022-08-01T16:28:45.944Z,55.46
2022-08-01T16:34:17.489Z,55.30
2022-08-01T16:39:49.590Z,55.20
2022-08-01T16:45:21.003Z,54.56
2022-08-01T16:50:52.277Z,53.65
2022-08-01T16:56:23.997Z,52.61
2022-08-01T17:02:01.594Z,52.17
2022-08-01T17:07:27.391Z,52.28
2022-08-01T17:12:59.177Z,52.34
2022-08-01T17:18:31.012Z,52.21
2022-08-01T17:24:02.765Z,51.57
2022-08-01T17:29:43.803Z,51.34
2022-08-01T17:35:06.135Z,51.02
2022-08-01T17:40:40.415Z,50.91
2022-08-01T17:46:09.598Z,51.02
2022-08-01T17:51:41.475Z,51.07
2022-08-01T17:57:13.219Z,51.67
2022-08-01T18:02:44.844Z,51.89
2022-08-01T18:08:16.527Z,51.92
2022-08-01T18:13:48.314Z,51.95
2022-08-01T18:19:19.923Z,51.99
2022-08-01T18:24:51.568Z,52.21
2022-08-01T18:30:23.665Z,52.06
2022-08-01T18:35:55.644Z,52.30
2022-08-01T18:41:27.352Z,52.40
2022-08-01T18:46:59.462Z,52.62
2022-08-01T18:52:31.633Z,52.70
2022-08-01T18:58:03.163Z,52.72
2022-08-01T19:03:36.080Z,53.06
2022-08-01T19:09:06.407Z,53.41
2022-08-01T19:14:38.203Z,53.75
2022-08-01T19:20:09.951Z,53.98
2022-08-01T19:25:55.351Z,54.02
2022-08-01T19:31:13.861Z,54.49
2022-08-01T19:42:14.756Z,55.59
2022-08-01T19:47:51.746Z,56.56
2022-08-01T19:53:17.788Z,57.23
2022-08-01T19:58:49.328Z,58.34
2022-08-01T20:04:21.183Z,58.82
2022-08-01T20:09:54.301Z,59.05
2022-08-01T20:15:25.084Z,60.15
2022-08-01T20:20:56.785Z,60.58
2022-08-01T20:26:28.199Z,60.62
2022-08-01T20:32:00.312Z,65.05
2022-08-01T20:38:04.125Z,64.16
2022-08-01T20:43:03.657Z,63.43
2022-08-01T20:48:35.690Z,63.80
2022-08-01T20:54:07.825Z,64.50
2022-08-01T20:59:55.735Z,65.34
2022-08-01T21:05:11.669Z,65.46
2022-08-01T21:10:43.506Z,66.10
2022-08-01T21:16:23.786Z,66.45
2022-08-01T21:21:47.249Z,67.11
2022-08-01T21:27:19.177Z,67.71
2022-08-01T21:32:51.172Z,68.66
2022-08-01T21:38:23.144Z,68.61
2022-08-01T21:43:54.982Z,69.49
2022-08-01T21:49:26.867Z,70.27
2022-08-01T21:54:58.278Z,69.63
2022-08-01T22:00:29.945Z,69.44
2022-08-01T22:06:01.645Z,68.92
2022-08-01T22:11:33.247Z,68.59
2022-08-01T22:17:05.058Z,68.19
2022-08-01T22:22:51.706Z,67.87
2022-08-01T22:28:10.113Z,68.07
2022-08-01T22:33:40.477Z,68.83
2022-08-01T22:39:12.028Z,69.02
2022-08-01T22:44:43.837Z,69.12
2022-08-01T22:50:15.564Z,69.64
2022-08-01T22:55:58.402Z,69.86
2022-08-01T23:01:21.039Z,70.11
2022-08-01T23:06:50.895Z,70.24
2022-08-01T23:12:22.673Z,70.49
2022-08-01T23:17:54.680Z,70.77
2022-08-01T23:23:31.477Z,70.63
2022-08-01T23:28:58.276Z,70.70
2022-08-01T23:34:29.944Z,70.81
2022-08-01T23:40:01.760Z,71.05
2022-08-01T23:46:01.971Z,70.80
2022-08-01T23:51:05.154Z,70.89
2022-08-01T23:56:36.909Z,70.76
